createdAt,value
2023-03-04T00:00:39.141Z,99224.91
2023-03-04T00:03:05.509Z,99221.72
2023-03-04T00:05:31.829Z,99222.25
2023-03-04T00:07:58.192Z,99223.88
2023-03-04T00:10:24.509Z,99214.72
2023-03-04T00:12:50.822Z,99207.97
2023-03-04T00:15:17.186Z,99207.19
2023-03-04T00:17:43.514Z,99206.59
2023-03-04T00:20:09.820Z,99201.50
2023-03-04T00:22:36.214Z,99202.03
2023-03-04T00:25:02.542Z,99198.00
2023-03-04T00:27:28.874Z,99203.09
2023-03-04T00:29:55.369Z,99199.09
2023-03-04T00:32:21.780Z,99191.81
2023-03-04T00:34:48.100Z,99197.19
2023-03-04T00:37:14.458Z,99192.88
2023-03-04T00:39:40.778Z,99186.16
2023-03-04T00:42:07.173Z,99189.91
2023-03-04T00:44:33.634Z,99188.31
2023-03-04T00:47:00.092Z,99183.19
2023-03-04T00:49:26.494Z,99185.91
2023-03-04T00:51:52.860Z,99181.03
2023-03-04T00:54:19.314Z,99182.38
2023-03-04T00:56:46.229Z,99172.41
2023-03-04T00:59:12.636Z,99170.78
2023-03-04T01:01:39.038Z,99151.41
2023-03-04T01:04:05.401Z,99163.78
2023-03-04T01:06:32.618Z,99153.28
2023-03-04T01:08:58.985Z,99149.25
2023-03-04T01:11:26.584Z,99147.66
2023-03-04T01:13:52.966Z,99136.59
2023-03-04T01:16:19.369Z,99132.53
2023-03-04T01:18:45.696Z,99140.91
2023-03-04T01:21:12.048Z,99129.03
2023-03-04T01:23:38.360Z,99117.22
2023-03-04T01:26:04.706Z,99123.69
2023-03-04T01:28:31.126Z,99111.03
2023-03-04T01:30:57.471Z,99111.31
2023-03-04T01:33:23.810Z,99105.41
2023-03-04T01:35:50.208Z,99105.38
2023-03-04T01:38:16.644Z,99093.53
2023-03-04T01:40:42.952Z,99094.59
2023-03-04T01:43:09.306Z,99094.59
2023-03-04T01:45:35.654Z,99088.16
2023-03-04T01:48:02.003Z,99079.81
2023-03-04T01:50:28.395Z,99076.56
2023-03-04T01:52:54.739Z,99075.75
2023-03-04T01:55:21.060Z,99066.88
2023-03-04T01:57:47.692Z,99070.09
2023-03-04T02:00:14.129Z,99057.19
2023-03-04T02:02:40.393Z,99055.03
2023-03-04T02:05:06.751Z,99044.53
2023-03-04T02:07:33.096Z,99044.56
2023-03-04T02:10:00.409Z,99038.63
2023-03-04T02:12:26.789Z,99033.78
2023-03-04T02:14:53.120Z,99026.25
2023-03-04T02:17:19.426Z,99020.59
2023-03-04T02:19:45.778Z,99013.06
2023-03-04T02:22:12.099Z,99008.78
2023-03-04T02:24:38.474Z,99005.28
2023-03-04T02:27:04.915Z,99002.84
2023-03-04T02:29:31.416Z,99012.78
2023-03-04T02:31:58.004Z,99005.78
2023-03-04T02:34:24.499Z,99006.88
2023-03-04T02:36:53.076Z,99002.56
2023-03-04T02:39:19.900Z,98992.34
2023-03-04T02:41:46.748Z,98999.31
2023-03-04T02:44:14.346Z,98986.13
2023-03-04T02:46:40.739Z,98975.13
2023-03-04T02:49:08.013Z,98969.72
2023-03-04T02:51:34.403Z,98968.91
2023-03-04T02:54:01.279Z,98965.69
2023-03-04T02:56:27.759Z,98959.47
2023-03-04T02:58:54.151Z,98971.00
2023-03-04T03:01:20.690Z,98963.47
2023-03-04T03:03:47.232Z,98969.13
2023-03-04T03:06:13.582Z,98960.78
2023-03-04T03:08:40.038Z,98969.38
2023-03-04T03:11:07.709Z,98977.16
2023-03-04T03:13:36.014Z,98974.19
2023-03-04T03:16:02.345Z,98971.78
2023-03-04T03:18:28.863Z,98973.09
2023-03-04T03:20:55.213Z,98960.19
2023-03-04T03:23:22.115Z,98955.63
2023-03-04T03:25:48.487Z,98952.94
2023-03-04T03:28:14.858Z,98953.47
2023-03-04T03:30:41.391Z,98956.44
2023-03-04T03:33:07.754Z,98956.72
2023-03-04T03:35:34.323Z,98951.03
2023-03-04T03:38:00.710Z,98945.91
2023-03-04T03:40:27.062Z,98947.53
2023-03-04T03:42:53.379Z,98939.19
2023-03-04T03:45:19.687Z,98930.59
2023-03-04T03:47:46.012Z,98935.94
2023-03-04T03:50:12.342Z,98936.47
2023-03-04T03:52:38.677Z,98922.19
2023-03-04T03:55:05.035Z,98920.31
2023-03-04T03:57:31.346Z,98920.59
2023-03-04T03:59:57.673Z,98927.84
2023-03-04T04:02:24.234Z,98921.13
2023-03-04T04:04:50.647Z,98925.94
2023-03-04T04:07:16.975Z,98916.81
2023-03-04T04:09:43.328Z,98916.78
2023-03-04T04:12:09.625Z,98918.09
2023-03-04T04:14:35.969Z,98930.41
2023-03-04T04:17:02.350Z,98927.97
2023-03-04T04:19:28.652Z,98926.94
2023-03-04T04:21:54.963Z,98930.69
2023-03-04T04:24:21.337Z,98928.25
2023-03-04T04:26:47.672Z,98930.09
2023-03-04T04:29:14.006Z,98934.66
2023-03-04T04:31:40.395Z,98924.69
2023-03-04T04:34:06.704Z,98918.25
2023-03-04T04:36:33.010Z,98917.69
2023-03-04T04:38:59.386Z,98927.09
2023-03-04T04:41:25.703Z,98934.03
2023-03-04T04:43:52.004Z,98937.22
2023-03-04T04:46:18.381Z,98939.34
2023-03-04T04:48:44.730Z,98943.38
2023-03-04T04:51:11.067Z,98947.63
2023-03-04T04:53:37.429Z,98939.56
2023-03-04T04:56:03.744Z,98950.81
2023-03-04T04:58:30.236Z,98949.25
2023-03-04T05:00:56.722Z,98950.56
2023-03-04T05:03:23.696Z,98958.09
2023-03-04T05:05:50.077Z,98949.75
2023-03-04T05:08:16.428Z,98953.50
2023-03-04T05:10:42.737Z,98949.47
2023-03-04T05:13:09.058Z,98952.94
2023-03-04T05:15:35.460Z,98947.28
2023-03-04T05:18:01.823Z,98960.69
2023-03-04T05:20:28.146Z,98963.59
2023-03-04T05:22:54.515Z,98966.81
2023-03-04T05:25:20.839Z,98963.03
2023-03-04T05:27:47.165Z,98967.88
2023-03-04T05:30:13.613Z,98967.81
2023-03-04T05:32:39.967Z,98968.63
2023-03-04T05:35:06.297Z,98978.78
2023-03-04T05:37:32.652Z,98976.38
2023-03-04T05:39:58.958Z,98977.44
2023-03-04T05:42:25.269Z,98973.13
2023-03-04T05:44:51.631Z,98975.53
2023-03-04T05:47:17.962Z,98972.84
2023-03-04T05:49:44.277Z,98973.91
2023-03-04T05:52:10.666Z,98983.28
2023-03-04T05:54:36.987Z,98989.16
2023-03-04T05:57:03.433Z,98982.41
2023-03-04T05:59:29.821Z,98957.03
2023-03-04T06:01:56.192Z,98982.13
2023-03-04T06:04:22.577Z,98990.97
2023-03-04T06:06:48.950Z,98992.34
2023-03-04T06:09:15.290Z,98988.59
2023-03-04T06:11:41.595Z,98991.03
2023-03-04T06:14:08.082Z,99002.56
2023-03-04T06:16:34.489Z,98999.88
2023-03-04T06:19:00.846Z,99001.47
2023-03-04T06:21:27.226Z,99004.97
2023-03-04T06:23:53.566Z,99014.06
2023-03-04T06:26:19.919Z,99010.59
2023-03-04T06:28:46.319Z,99015.16
2023-03-04T06:31:12.678Z,99010.06
2023-03-04T06:33:39.009Z,99008.44
2023-03-04T06:36:05.392Z,99014.31
2023-03-04T06:38:31.733Z,99010.81
2023-03-04T06:40:58.075Z,99011.41
2023-03-04T06:43:24.449Z,99010.03
2023-03-04T06:45:50.784Z,99014.00
2023-03-04T06:48:17.108Z,99024.72
2023-03-04T06:50:43.473Z,99023.94
2023-03-04T06:53:09.808Z,99017.78
2023-03-04T06:55:36.119Z,99019.66
2023-03-04T06:58:02.651Z,99025.25
2023-03-04T07:00:29.044Z,99010.78
2023-03-04T07:02:55.406Z,99005.69
2023-03-04T07:05:21.758Z,98994.41
2023-03-04T07:07:48.126Z,98989.84
2023-03-04T07:10:14.498Z,98994.41
2023-03-04T07:12:40.888Z,98989.31
2023-03-04T07:15:07.218Z,98988.50
2023-03-04T07:17:33.516Z,98981.50
2023-03-04T07:19:59.897Z,98992.81
2023-03-04T07:22:26.191Z,98988.75
2023-03-04T07:24:52.495Z,98992.22
2023-03-04T07:27:18.857Z,98996.78
2023-03-04T07:29:45.206Z,98991.19
2023-03-04T07:32:11.685Z,99001.91
2023-03-04T07:34:38.272Z,98998.38
2023-03-04T07:37:04.624Z,98991.19
2023-03-04T07:39:31.951Z,98986.88
2023-03-04T07:41:58.320Z,98992.22
2023-03-04T07:44:24.626Z,98996.22
2023-03-04T07:46:50.957Z,98990.06
2023-03-04T07:49:17.315Z,99004.00
2023-03-04T07:51:43.727Z,98994.09
2023-03-04T07:54:10.040Z,99002.41
2023-03-04T07:56:36.420Z,99007.75
2023-03-04T07:59:02.799Z,99010.69
2023-03-04T08:01:29.100Z,99005.56
2023-03-04T08:03:55.495Z,99007.19
2023-03-04T08:06:21.828Z,99008.81
2023-03-04T08:08:48.252Z,99000.78
2023-03-04T08:11:14.726Z,99003.44
2023-03-04T08:13:41.075Z,99005.09
2023-03-04T08:16:07.473Z,99013.13
2023-03-04T08:18:33.921Z,99013.13
2023-03-04T08:21:00.224Z,99020.34
2023-03-04T08:23:26.580Z,99023.00
2023-03-04T08:25:52.962Z,99022.22
2023-03-04T08:28:19.301Z,99026.53
2023-03-04T08:30:45.690Z,99024.38
2023-03-04T08:33:12.161Z,99023.56
2023-03-04T08:35:38.607Z,99027.88
2023-03-04T08:38:04.944Z,99032.19
2023-03-04T08:40:31.365Z,99039.16
2023-03-04T08:42:57.672Z,99035.66
2023-03-04T08:45:24.001Z,99033.56
2023-03-04T08:47:50.382Z,99038.91
2023-03-04T08:50:16.706Z,99041.25
2023-03-04T08:52:43.016Z,99040.75
2023-03-04T08:55:09.374Z,99045.88
2023-03-04T08:57:35.713Z,99048.06
2023-03-04T09:00:02.072Z,99047.25
2023-03-04T09:02:28.454Z,99055.81
2023-03-04T09:04:54.785Z,99054.50
2023-03-04T09:07:21.093Z,99048.91
2023-03-04T09:09:47.490Z,99055.66
2023-03-04T09:12:13.832Z,99055.38
2023-03-04T09:14:40.168Z,99057.00
2023-03-04T09:17:06.535Z,99065.59
2023-03-04T09:19:32.866Z,99061.03
2023-03-04T09:21:59.188Z,99070.72
2023-03-04T09:24:25.542Z,99079.28
2023-03-04T09:26:51.863Z,99072.88
2023-03-04T09:29:18.172Z,99072.88
2023-03-04T09:31:44.566Z,99079.88
2023-03-04T09:34:10.961Z,99079.63
2023-03-04T09:36:37.309Z,99083.69
2023-03-04T09:39:03.700Z,99071.06
2023-03-04T09:41:30.015Z,99069.19
2023-03-04T09:43:56.367Z,99077.53
2023-03-04T09:46:22.723Z,99063.06
2023-03-04T09:48:49.045Z,99062.81
2023-03-04T09:51:15.360Z,99061.22
2023-03-04T09:53:41.810Z,99063.38
2023-03-04T09:56:08.216Z,99056.94
2023-03-04T09:58:34.603Z,99050.47
2023-03-04T10:01:04.068Z,99054.25
2023-03-04T10:03:31.576Z,99050.50
2023-03-04T10:05:57.883Z,99045.72
2023-03-04T10:08:24.311Z,99053.25
2023-03-04T10:10:50.645Z,99052.16
2023-03-04T10:13:17.020Z,99052.72
2023-03-04T10:15:43.419Z,99035.03
2023-03-04T10:18:09.729Z,99029.41
2023-03-04T10:20:36.042Z,99033.72
2023-03-04T10:23:02.398Z,99029.72
2023-03-04T10:25:28.730Z,99025.16
2023-03-04T10:27:55.061Z,99022.19
2023-03-04T10:30:21.555Z,99020.09
2023-03-04T10:32:47.932Z,99020.88
2023-03-04T10:35:14.278Z,99016.72
2023-03-04T10:37:40.647Z,99016.63
2023-03-04T10:40:06.986Z,99022.53
2023-03-04T10:42:33.392Z,99018.03
2023-03-04T10:44:59.828Z,99007.06
2023-03-04T10:47:26.172Z,99014.59
2023-03-04T10:49:52.514Z,99007.06
2023-03-04T10:52:18.877Z,99003.53
2023-03-04T10:54:45.306Z,98999.34
2023-03-04T10:57:11.612Z,98997.72
2023-03-04T10:59:38.005Z,98999.84
2023-03-04T11:02:04.337Z,98994.53
2023-03-04T11:04:30.650Z,98993.47
2023-03-04T11:06:57.013Z,98999.94
2023-03-04T11:09:23.334Z,98993.78
2023-03-04T11:11:49.648Z,98992.72
2023-03-04T11:14:16.060Z,98994.63
2023-03-04T11:16:42.401Z,98997.84
2023-03-04T11:19:08.753Z,98989.28
2023-03-04T11:21:35.121Z,98986.88
2023-03-04T11:24:01.442Z,98986.34
2023-03-04T11:26:27.771Z,98983.44
2023-03-04T11:28:54.143Z,98990.69
2023-03-04T11:31:20.582Z,98976.72
2023-03-04T11:33:47.028Z,98980.53
2023-03-04T11:36:13.403Z,98974.88
2023-03-04T11:38:39.762Z,98973.00
2023-03-04T11:41:06.097Z,98960.69
2023-03-04T11:43:32.451Z,98958.53
2023-03-04T11:45:58.788Z,98958.00
2023-03-04T11:48:25.182Z,98947.56
2023-03-04T11:50:51.568Z,98944.34
2023-03-04T11:53:17.869Z,98944.84
2023-03-04T11:55:44.241Z,98946.22
2023-03-04T11:58:10.601Z,98948.13
2023-03-04T12:00:36.923Z,98936.03
2023-03-04T12:03:03.236Z,98937.91
2023-03-04T12:05:29.595Z,98931.75
2023-03-04T12:07:55.918Z,98921.84
2023-03-04T12:10:22.285Z,98919.97
2023-03-04T12:12:48.648Z,98927.75
2023-03-04T12:15:15.241Z,98923.47
2023-03-04T12:17:41.632Z,98922.97
2023-03-04T12:20:08.010Z,98921.34
2023-03-04T12:22:34.322Z,98918.66
2023-03-04T12:25:00.629Z,98914.09
2023-03-04T12:27:27.025Z,98912.22
2023-03-04T12:29:53.320Z,98917.31
2023-03-04T12:32:19.807Z,98908.69
2023-03-04T12:34:46.198Z,98911.66
2023-03-04T12:37:12.521Z,98914.88
2023-03-04T12:39:38.865Z,98901.69
2023-03-04T12:42:05.243Z,98908.69
2023-03-04T12:44:31.570Z,98910.28
2023-03-04T12:46:58.166Z,98897.63
2023-03-04T12:49:24.631Z,98905.69
2023-03-04T12:51:50.961Z,98904.59
2023-03-04T12:54:17.295Z,98911.03
2023-03-04T12:56:43.865Z,98905.38
2023-03-04T12:59:10.222Z,98902.66
2023-03-04T13:01:36.537Z,98907.25
2023-03-04T13:04:02.920Z,98899.41
2023-03-04T13:06:29.243Z,98888.09
2023-03-04T13:08:56.096Z,98878.91
2023-03-04T13:11:22.596Z,98882.66
2023-03-04T13:13:48.968Z,98878.34
2023-03-04T13:16:15.316Z,98883.16
2023-03-04T13:18:41.695Z,98869.41
2023-03-04T13:21:08.010Z,98876.69
2023-03-04T13:23:34.343Z,98878.53
2023-03-04T13:26:00.697Z,98877.16
2023-03-04T13:28:27.007Z,98880.41
2023-03-04T13:30:53.357Z,98875.25
2023-03-04T13:33:19.706Z,98878.47
2023-03-04T13:35:46.086Z,98867.94
2023-03-04T13:38:12.459Z,98874.41
2023-03-04T13:40:38.815Z,98867.13
2023-03-04T13:43:05.149Z,98866.56
2023-03-04T13:45:31.482Z,98860.09
2023-03-04T13:47:57.874Z,98863.31
2023-03-04T13:50:24.208Z,98860.84
2023-03-04T13:52:50.539Z,98862.75
2023-03-04T13:55:16.904Z,98850.63
2023-03-04T13:57:43.226Z,98849.78
2023-03-04T14:00:09.567Z,98841.16
2023-03-04T14:02:35.875Z,98838.47
2023-03-04T14:05:02.205Z,98830.88
2023-03-04T14:07:28.517Z,98824.44
2023-03-04T14:09:54.983Z,98832.53
2023-03-04T14:12:21.343Z,98829.81
2023-03-04T14:14:47.704Z,98831.44
2023-03-04T14:17:14.074Z,98826.03
2023-03-04T14:19:40.396Z,98832.22
2023-03-04T14:22:06.720Z,98830.31
2023-03-04T14:24:33.091Z,98820.63
2023-03-04T14:26:59.416Z,98826.84
2023-03-04T14:29:25.737Z,98823.91
2023-03-04T14:31:52.185Z,98825.25
2023-03-04T14:34:18.535Z,98825.53
2023-03-04T14:36:44.876Z,98828.22
2023-03-04T14:39:11.245Z,98827.16
2023-03-04T14:41:37.566Z,98829.56
2023-03-04T14:44:03.911Z,98819.59
2023-03-04T14:46:30.289Z,98826.31
2023-03-04T14:48:56.618Z,98817.16
2023-03-04T14:51:23.003Z,98814.16
2023-03-04T14:53:49.344Z,98808.75
2023-03-04T14:56:15.668Z,98819.53
2023-03-04T14:58:41.989Z,98826.56
2023-03-04T15:01:08.400Z,98825.72
2023-03-04T15:03:34.817Z,98820.34
2023-03-04T15:06:01.428Z,98826.56
2023-03-04T15:08:27.905Z,98824.66
2023-03-04T15:10:54.224Z,98823.03
2023-03-04T15:13:20.530Z,98825.72
2023-03-04T15:15:46.926Z,98821.44
2023-03-04T15:18:13.289Z,98812.81
2023-03-04T15:20:39.618Z,98817.41
2023-03-04T15:23:06.007Z,98810.41
2023-03-04T15:25:32.376Z,98810.69
2023-03-04T15:28:00.520Z,98811.78
2023-03-04T15:30:28.805Z,98809.34
2023-03-04T15:32:55.275Z,98813.16
2023-03-04T15:35:21.602Z,98811.56
2023-03-04T15:37:47.987Z,98806.97
2023-03-04T15:40:14.312Z,98804.53
2023-03-04T15:42:40.653Z,98809.41
2023-03-04T15:45:07.005Z,98800.81
2023-03-04T15:47:33.394Z,98803.78
2023-03-04T15:49:59.744Z,98797.56
2023-03-04T15:52:26.129Z,98795.97
2023-03-04T15:54:52.444Z,98793.56
2023-03-04T15:57:18.763Z,98789.25
2023-03-04T15:59:45.124Z,98791.41
2023-03-04T16:02:11.456Z,98783.88
2023-03-04T16:04:37.839Z,98792.28
2023-03-04T16:07:04.232Z,98783.66
2023-03-04T16:09:30.569Z,98781.25
2023-03-04T16:11:56.900Z,98776.13
2023-03-04T16:14:23.266Z,98782.09
2023-03-04T16:16:49.585Z,98778.59
2023-03-04T16:19:15.918Z,98781.31
2023-03-04T16:21:42.280Z,98781.03
2023-03-04T16:24:08.604Z,98782.09
2023-03-04T16:26:34.929Z,98779.97
2023-03-04T16:29:01.285Z,98753.16
2023-03-04T16:31:27.655Z,98780.28
2023-03-04T16:33:54.103Z,98786.22
2023-03-04T16:36:20.531Z,98779.19
2023-03-04T16:38:46.912Z,98777.59
2023-03-04T16:41:13.241Z,98770.38
2023-03-04T16:43:39.639Z,98779.25
2023-03-04T16:46:06.068Z,98781.16
2023-03-04T16:48:32.400Z,98781.72
2023-03-04T16:50:58.775Z,98771.19
2023-03-04T16:53:25.097Z,98774.97
2023-03-04T16:55:51.452Z,98768.25
2023-03-04T16:58:17.816Z,98767.72
2023-03-04T17:00:44.134Z,98757.25
2023-03-04T17:03:10.494Z,98760.22
2023-03-04T17:05:36.894Z,98765.34
2023-03-04T17:08:03.200Z,98762.63
2023-03-04T17:10:29.527Z,98770.97
2023-03-04T17:12:55.918Z,98770.19
2023-03-04T17:15:22.231Z,98778.25
2023-03-04T17:17:48.649Z,98784.97
2023-03-04T17:20:15.094Z,98788.72
2023-03-04T17:22:41.419Z,98785.25
2023-03-04T17:25:07.724Z,98783.34
2023-03-04T17:27:34.096Z,98780.94
2023-03-04T17:30:00.414Z,98791.72
2023-03-04T17:32:26.796Z,98782.31
2023-03-04T17:34:53.196Z,98782.59
2023-03-04T17:37:19.524Z,98783.66
2023-03-04T17:39:45.902Z,98786.66
2023-03-04T17:42:12.322Z,98795.78
2023-03-04T17:44:38.631Z,98794.97
2023-03-04T17:47:05.024Z,98789.59
2023-03-04T17:49:31.452Z,98792.59
2023-03-04T17:51:57.752Z,98805.50
2023-03-04T17:54:24.145Z,98794.19
2023-03-04T17:56:50.483Z,98795.28
2023-03-04T17:59:16.789Z,98796.09
2023-03-04T18:01:43.189Z,98791.81
2023-03-04T18:04:09.551Z,98789.09
2023-03-04T18:06:35.878Z,98785.88
2023-03-04T18:09:02.434Z,98792.88
2023-03-04T18:11:28.878Z,98784.00
2023-03-04T18:13:56.636Z,98776.22
2023-03-04T18:16:23.278Z,98777.56
2023-03-04T18:18:49.798Z,98778.66
2023-03-04T18:21:16.094Z,98777.88
2023-03-04T18:23:42.413Z,98781.91
2023-03-04T18:26:08.785Z,98780.00
2023-03-04T18:28:35.094Z,98781.38
2023-03-04T18:31:01.421Z,98786.75
2023-03-04T18:33:27.795Z,98789.19
2023-03-04T18:35:54.131Z,98790.53
2023-03-04T18:38:20.452Z,98791.59
2023-03-04T18:40:46.823Z,98787.03
2023-03-04T18:43:13.138Z,98791.09
2023-03-04T18:45:39.461Z,98794.84
2023-03-04T18:48:05.843Z,98789.75
2023-03-04T18:50:32.154Z,98788.94
2023-03-04T18:52:58.489Z,98787.31
2023-03-04T18:55:24.875Z,98793.25
2023-03-04T18:57:51.210Z,98790.84
2023-03-04T19:00:17.537Z,98801.34
2023-03-04T19:02:43.945Z,98800.28
2023-03-04T19:05:10.286Z,98794.09
2023-03-04T19:07:36.620Z,98802.41
2023-03-04T19:10:02.999Z,98804.31
2023-03-04T19:12:29.347Z,98797.31
2023-03-04T19:14:55.723Z,98798.38
2023-03-04T19:17:22.104Z,98799.47
2023-03-04T19:19:48.456Z,98796.25
2023-03-04T19:22:14.777Z,98790.34
2023-03-04T19:24:41.179Z,98794.09
2023-03-04T19:27:07.481Z,98791.41
2023-03-04T19:29:33.794Z,98786.31
2023-03-04T19:32:00.263Z,98790.91
2023-03-04T19:34:26.607Z,98791.97
2023-03-04T19:36:52.942Z,98792.25
2023-03-04T19:39:19.295Z,98794.41
2023-03-04T19:41:45.605Z,98800.03
2023-03-04T19:44:11.935Z,98798.19
2023-03-04T19:46:38.307Z,98801.66
2023-03-04T19:49:04.668Z,98796.53
2023-03-04T19:51:30.988Z,98803.28
2023-03-04T19:53:57.414Z,98807.84
2023-03-04T19:56:23.792Z,98809.72
2023-03-04T19:58:50.188Z,98801.66
2023-03-04T20:01:16.612Z,98817.00
2023-03-04T20:03:42.921Z,98799.78
2023-03-04T20:06:09.295Z,98811.34
2023-03-04T20:08:38.236Z,98811.34
2023-03-04T20:11:04.799Z,98814.31
2023-03-04T20:13:31.108Z,98815.91
2023-03-04T20:15:57.530Z,98809.72
2023-03-04T20:18:23.898Z,98805.16
2023-03-04T20:20:50.229Z,98805.97
2023-03-04T20:23:16.609Z,98807.31
2023-03-04T20:25:42.930Z,98811.88
2023-03-04T20:28:09.239Z,98798.72
2023-03-04T20:30:35.598Z,98805.69
2023-03-04T20:33:01.908Z,98799.78
2023-03-04T20:35:28.268Z,98804.66
2023-03-04T20:37:54.664Z,98800.31
2023-03-04T20:40:20.970Z,98807.06
2023-03-04T20:42:47.288Z,98800.88
2023-03-04T20:45:13.790Z,98801.69
2023-03-04T20:47:40.188Z,98796.59
2023-03-04T20:50:06.551Z,98802.75
2023-03-04T20:52:32.936Z,98800.06
2023-03-04T20:54:59.469Z,98804.91
2023-03-04T20:57:25.795Z,98800.06
2023-03-04T20:59:52.174Z,98794.16
2023-03-04T21:02:18.483Z,98796.84
2023-03-04T21:04:44.827Z,98797.13
2023-03-04T21:07:11.246Z,98788.25
2023-03-04T21:09:37.558Z,98792.81
2023-03-04T21:12:03.886Z,98792.00
2023-03-04T21:14:30.259Z,98794.69
2023-03-04T21:16:56.709Z,98792.84
2023-03-04T21:19:23.070Z,98784.78
2023-03-04T21:21:49.439Z,98794.44
2023-03-04T21:24:15.813Z,98778.31
2023-03-04T21:26:42.141Z,98785.56
2023-03-04T21:29:08.500Z,98784.78
2023-03-04T21:31:34.863Z,98777.78
2023-03-04T21:34:01.227Z,98775.38
2023-03-04T21:36:27.624Z,98779.94
2023-03-04T21:38:53.993Z,98768.38
2023-03-04T21:41:20.322Z,98770.25
2023-03-04T21:43:46.690Z,98772.44
2023-03-04T21:46:13.063Z,98769.19
2023-03-04T21:48:39.421Z,98770.00
2023-03-04T21:51:05.815Z,98771.34
2023-03-04T21:53:32.176Z,98766.25
2023-03-04T21:55:58.493Z,98767.06
2023-03-04T21:58:24.868Z,98762.75
2023-03-04T22:00:51.321Z,98763.28
2023-03-04T22:03:17.677Z,98761.66
2023-03-04T22:05:44.031Z,98764.38
2023-03-04T22:08:10.335Z,98764.63
2023-03-04T22:10:36.652Z,98760.63
2023-03-04T22:13:03.028Z,98754.69
2023-03-04T22:15:29.347Z,98749.84
2023-03-04T22:17:55.874Z,98750.66
2023-03-04T22:20:22.367Z,98744.47
2023-03-04T22:22:48.709Z,98742.81
2023-03-04T22:25:15.033Z,98746.34
2023-03-04T22:27:41.417Z,98751.72
2023-03-04T22:30:07.906Z,98752.78
2023-03-04T22:32:34.319Z,98746.59
2023-03-04T22:35:00.734Z,98753.88
2023-03-04T22:37:27.097Z,98750.09
2023-03-04T22:39:53.500Z,98752.78
2023-03-04T22:42:19.883Z,98750.91
2023-03-04T22:44:46.228Z,98753.34
2023-03-04T22:47:12.556Z,98747.41
2023-03-04T22:49:38.927Z,98752.53
2023-03-04T22:52:05.248Z,98753.34
2023-03-04T22:54:31.548Z,98752.28
2023-03-04T22:56:57.944Z,98754.97
2023-03-04T22:59:24.324Z,98754.97
2023-03-04T23:01:50.642Z,98756.84
2023-03-04T23:04:17.020Z,98761.13
2023-03-04T23:06:43.342Z,98757.09
2023-03-04T23:09:09.762Z,98758.44
2023-03-04T23:11:36.244Z,98755.75
2023-03-04T23:14:02.570Z,98753.88
2023-03-04T23:16:28.898Z,98763.00
2023-03-04T23:18:57.130Z,98754.97
2023-03-04T23:21:25.478Z,98752.84
2023-03-04T23:23:51.847Z,98757.09
2023-03-04T23:26:18.225Z,98755.75
2023-03-04T23:28:44.575Z,98757.94
2023-03-04T23:31:10.942Z,98750.69
2023-03-04T23:33:37.355Z,98759.25
2023-03-04T23:36:03.723Z,98757.09
2023-03-04T23:38:30.036Z,98761.41
2023-03-04T23:40:56.421Z,98760.31
2023-03-04T23:43:22.738Z,98758.44
2023-03-04T23:45:49.104Z,98758.44
2023-03-04T23:48:15.511Z,98759.53
2023-03-04T23:50:41.823Z,98757.09
2023-03-04T23:53:08.132Z,98749.88
2023-03-04T23:55:34.521Z,98753.59
2023-03-04T23:58:00.849Z,98750.41
